createdAt,value
2022-12-11T00:00:46.679Z,61.38
2022-12-11T00:03:16.117Z,64.93
2022-12-11T00:05:43.923Z,71.47
2022-12-11T00:08:11.152Z,63.78
2022-12-11T00:10:38.237Z,68.65
2022-12-11T00:13:05.659Z,53.35
2022-12-11T00:15:32.285Z,60.80
2022-12-11T00:17:58.807Z,56.83
2022-12-11T00:20:25.489Z,51.80
2022-12-11T00:22:51.963Z,54.92
2022-12-11T00:25:18.923Z,48.42
2022-12-11T00:27:47.042Z,52.45
2022-12-11T00:30:14.943Z,52.92
2022-12-11T00:32:41.489Z,53.33
2022-12-11T00:35:09.087Z,54.42
2022-12-11T00:37:35.894Z,51.30
2022-12-11T00:40:02.511Z,50.50
2022-12-11T00:42:29.076Z,41.30
2022-12-11T00:44:56.446Z,48.40
2022-12-11T00:47:22.983Z,42.58
2022-12-11T00:49:50.112Z,49.88
2022-12-11T00:52:18.175Z,44.28
2022-12-11T00:54:45.035Z,35.10
2022-12-11T00:57:11.577Z,46.97
2022-12-11T00:59:38.160Z,49.58
2022-12-11T01:02:04.842Z,46.67
2022-12-11T01:04:31.417Z,42.65
2022-12-11T01:06:57.958Z,49.97
2022-12-11T01:10:03.068Z,52.03
2022-12-11T01:12:29.580Z,54.28
2022-12-11T01:14:56.133Z,48.47
2022-12-11T01:17:23.103Z,46.45
2022-12-11T01:19:49.617Z,37.97
2022-12-11T01:22:16.087Z,42.58
2022-12-11T01:24:42.668Z,44.10
2022-12-11T01:27:09.238Z,44.33
2022-12-11T01:29:35.704Z,39.60
2022-12-11T01:32:02.167Z,40.58
2022-12-11T01:34:33.283Z,44.42
2022-12-11T01:39:26.176Z,31.33
2022-12-11T01:41:57.967Z,38.13
2022-12-11T01:44:24.472Z,36.55
2022-12-11T01:46:51.124Z,33.85
2022-12-11T01:49:20.735Z,43.63
2022-12-11T01:52:03.091Z,39.70
2022-12-11T01:54:30.118Z,38.08
2022-12-11T01:57:01.409Z,34.05
2022-12-11T01:59:31.175Z,34.22
2022-12-11T02:02:08.099Z,38.67
2022-12-11T02:04:37.562Z,43.25
2022-12-11T02:07:05.229Z,42.58
2022-12-11T02:09:37.733Z,46.22
2022-12-11T02:12:22.732Z,48.40
2022-12-11T02:15:08.317Z,49.67
2022-12-11T02:17:47.587Z,49.85
2022-12-11T02:20:25.832Z,64.78
2022-12-11T02:23:16.711Z,41.45
2022-12-11T02:26:20.487Z,58.72
2022-12-11T02:29:00.958Z,52.92
2022-12-11T02:31:39.388Z,57.10
2022-12-11T02:34:12.551Z,52.03
2022-12-11T02:36:44.008Z,58.75
2022-12-11T02:39:13.111Z,54.38
2022-12-11T02:41:44.575Z,48.28
2022-12-11T02:44:14.217Z,42.25
2022-12-11T02:46:42.142Z,45.38
2022-12-11T02:49:11.828Z,57.60
2022-12-11T02:51:41.163Z,47.30
2022-12-11T02:54:16.210Z,53.67
2022-12-11T02:56:52.644Z,54.00
2022-12-11T02:59:28.663Z,55.72
2022-12-11T03:04:26.940Z,47.40
2022-12-11T03:06:56.516Z,53.80
2022-12-11T03:09:23.124Z,59.03
2022-12-11T03:11:49.634Z,61.47
2022-12-11T03:14:16.155Z,42.10
2022-12-11T03:16:58.059Z,56.80
2022-12-11T03:19:30.649Z,62.97
2022-12-11T03:22:22.127Z,39.70
2022-12-11T03:24:59.320Z,53.30
2022-12-11T03:30:16.231Z,63.03
2022-12-11T03:33:05.049Z,58.63
2022-12-11T03:35:56.686Z,64.15
2022-12-11T03:38:38.963Z,72.10
2022-12-11T03:41:08.698Z,72.20
2022-12-11T03:43:36.335Z,71.35
2022-12-11T03:46:03.324Z,83.25
2022-12-11T03:48:36.085Z,87.65
2022-12-11T03:51:05.518Z,86.95
2022-12-11T03:53:34.349Z,63.90
2022-12-11T03:56:02.714Z,79.20
2022-12-11T03:58:29.863Z,85.50
2022-12-11T04:00:56.374Z,96.28
2022-12-11T04:03:23.257Z,79.75
2022-12-11T04:05:56.030Z,64.95
2022-12-11T04:08:23.203Z,82.95
2022-12-11T04:11:13.597Z,66.53
2022-12-11T04:13:41.499Z,58.72
2022-12-11T04:16:08.641Z,58.13
2022-12-11T04:19:07.820Z,53.33
2022-12-11T04:21:52.780Z,64.90
2022-12-11T04:24:19.400Z,64.13
2022-12-11T04:26:47.797Z,70.90
2022-12-11T04:29:15.158Z,68.38
2022-12-11T04:31:41.771Z,67.30
2022-12-11T04:34:08.361Z,63.70
2022-12-11T04:36:34.981Z,54.60
2022-12-11T04:39:01.654Z,60.45
2022-12-11T04:41:28.406Z,38.20
2022-12-11T04:43:54.915Z,53.33
2022-12-11T04:46:24.067Z,52.30
2022-12-11T04:48:57.078Z,49.28
2022-12-11T04:51:24.426Z,44.80
2022-12-11T04:53:50.965Z,60.00
2022-12-11T04:56:17.675Z,53.50
2022-12-11T04:58:45.011Z,66.55
2022-12-11T05:01:14.259Z,82.63
2022-12-11T05:03:41.107Z,58.58
2022-12-11T05:06:09.096Z,60.88
2022-12-11T05:08:37.380Z,54.88
2022-12-11T05:11:06.944Z,64.93
2022-12-11T05:13:34.070Z,70.78
2022-12-11T05:16:04.084Z,52.67
2022-12-11T05:18:30.657Z,54.85
2022-12-11T05:21:03.203Z,67.00
2022-12-11T05:23:30.518Z,72.13
2022-12-11T05:26:00.450Z,58.58
2022-12-11T05:28:30.725Z,62.67
2022-12-11T05:31:05.190Z,70.38
2022-12-11T05:33:32.561Z,57.20
2022-12-11T05:35:59.190Z,68.22
2022-12-11T05:38:25.958Z,58.05
2022-12-11T05:41:03.899Z,67.63
2022-12-11T05:43:33.440Z,60.78
2022-12-11T05:46:15.657Z,70.28
2022-12-11T05:48:43.962Z,67.68
2022-12-11T05:51:11.346Z,53.03
2022-12-11T05:53:38.693Z,65.05
2022-12-11T05:56:11.933Z,62.63
2022-12-11T05:58:40.275Z,74.10
2022-12-11T06:01:27.254Z,65.22
2022-12-11T06:03:55.084Z,56.47
2022-12-11T06:06:22.399Z,62.63
2022-12-11T06:08:57.174Z,43.05
2022-12-11T06:11:24.608Z,66.07
2022-12-11T06:13:52.001Z,50.33
2022-12-11T06:16:19.098Z,46.22
2022-12-11T06:18:46.101Z,54.42
2022-12-11T06:21:18.937Z,53.10
2022-12-11T06:23:47.487Z,62.80
2022-12-11T06:26:15.099Z,52.78
2022-12-11T06:28:42.100Z,60.10
2022-12-11T06:31:08.795Z,55.25
2022-12-11T06:33:35.589Z,57.45
2022-12-11T06:36:10.858Z,52.00
2022-12-11T06:38:38.140Z,55.95
2022-12-11T06:41:05.751Z,58.28
2022-12-11T06:43:33.416Z,55.95
2022-12-11T06:46:04.166Z,50.65
2022-12-11T06:48:31.510Z,60.35
2022-12-11T06:50:58.018Z,57.17
2022-12-11T06:53:24.496Z,49.85
2022-12-11T06:55:51.041Z,53.75
2022-12-11T06:58:17.666Z,60.13
2022-12-11T07:00:45.490Z,54.10
2022-12-11T07:03:14.959Z,53.15
2022-12-11T07:05:41.535Z,49.83
2022-12-11T07:08:08.083Z,49.97
2022-12-11T07:10:34.683Z,50.42
2022-12-11T07:13:01.180Z,52.30
2022-12-11T07:15:27.676Z,34.05
2022-12-11T07:17:54.382Z,45.50
2022-12-11T07:20:20.897Z,51.85
2022-12-11T07:22:47.378Z,45.90
2022-12-11T07:25:15.860Z,44.20
2022-12-11T07:27:42.395Z,36.95
2022-12-11T07:30:09.909Z,36.97
2022-12-11T07:32:36.593Z,39.00
2022-12-11T07:35:04.034Z,31.08
2022-12-11T07:37:30.576Z,46.15
2022-12-11T07:39:57.034Z,37.65
2022-12-11T07:42:23.830Z,33.17
2022-12-11T07:44:50.566Z,35.60
2022-12-11T07:47:17.050Z,41.80
2022-12-11T07:49:43.533Z,43.58
2022-12-11T07:52:10.173Z,37.55
2022-12-11T07:54:36.970Z,45.15
2022-12-11T07:57:03.514Z,33.15
2022-12-11T07:59:30.065Z,33.75
2022-12-11T08:01:56.633Z,38.40
2022-12-11T08:04:23.718Z,36.70
2022-12-11T08:06:50.214Z,42.38
2022-12-11T08:09:20.901Z,32.40
2022-12-11T08:11:50.006Z,38.20
2022-12-11T08:14:16.622Z,39.40
2022-12-11T08:16:44.277Z,41.08
2022-12-11T08:19:14.076Z,43.72
2022-12-11T08:21:41.172Z,37.92
2022-12-11T08:24:08.636Z,41.67
2022-12-11T08:26:35.264Z,30.05
2022-12-11T08:29:02.197Z,42.28
2022-12-11T08:31:29.854Z,42.08
2022-12-11T08:33:56.897Z,42.38
2022-12-11T08:36:24.040Z,49.50
2022-12-11T08:38:51.377Z,49.20
2022-12-11T08:41:29.046Z,48.42
2022-12-11T08:43:57.698Z,49.08
2022-12-11T08:46:27.747Z,43.80
2022-12-11T08:48:55.765Z,50.30
2022-12-11T08:51:24.719Z,27.85
2022-12-11T08:53:51.908Z,42.58
2022-12-11T08:56:20.600Z,41.35
2022-12-11T08:58:47.886Z,30.95
2022-12-11T09:01:18.062Z,31.33
2022-12-11T09:03:45.083Z,32.67
2022-12-11T09:06:14.745Z,27.98
2022-12-11T09:08:47.196Z,40.80
2022-12-11T09:11:20.231Z,33.50
2022-12-11T09:13:47.004Z,26.88
2022-12-11T09:16:16.874Z,32.25
2022-12-11T09:18:46.922Z,32.88
2022-12-11T09:21:15.333Z,34.83
2022-12-11T09:23:42.444Z,33.75
2022-12-11T09:26:12.265Z,30.00
2022-12-11T09:28:45.697Z,30.50
2022-12-11T09:31:16.446Z,31.40
2022-12-11T09:33:43.636Z,36.15
2022-12-11T09:36:10.418Z,26.88
2022-12-11T09:38:37.380Z,29.77
2022-12-11T09:41:29.671Z,32.53
2022-12-11T09:44:08.017Z,29.65
2022-12-11T09:46:36.491Z,26.40
2022-12-11T09:49:09.470Z,30.63
2022-12-11T09:51:52.050Z,28.17
2022-12-11T09:54:18.553Z,30.40
2022-12-11T09:56:59.291Z,29.80
2022-12-11T10:00:02.712Z,32.88
2022-12-11T10:03:08.048Z,28.92
2022-12-11T10:05:52.925Z,29.65
2022-12-11T10:08:49.139Z,32.20
2022-12-11T10:11:24.769Z,30.58
2022-12-11T10:14:06.045Z,28.17
2022-12-11T10:16:39.551Z,31.42
2022-12-11T10:19:15.332Z,59.28
2022-12-11T10:21:43.351Z,24.73
2022-12-11T10:24:41.937Z,31.02
2022-12-11T10:27:21.220Z,30.67
2022-12-11T10:30:18.287Z,34.78
2022-12-11T10:33:22.797Z,35.05
2022-12-11T10:35:55.726Z,34.22
2022-12-11T10:38:28.327Z,40.10
2022-12-11T10:40:58.615Z,41.28
2022-12-11T10:43:40.363Z,40.40
2022-12-11T10:46:14.473Z,34.88
2022-12-11T10:48:59.607Z,24.80
2022-12-11T10:51:36.102Z,29.17
2022-12-11T10:54:42.426Z,26.23
2022-12-11T10:57:12.000Z,28.65
2022-12-11T10:59:47.242Z,34.00
2022-12-11T11:02:26.659Z,38.90
2022-12-11T11:04:56.101Z,27.23
2022-12-11T11:07:25.104Z,34.97
2022-12-11T11:10:04.327Z,31.88
2022-12-11T11:12:36.988Z,41.00
2022-12-11T11:15:13.997Z,31.80
2022-12-11T11:20:25.637Z,24.98
2022-12-11T11:23:01.881Z,28.67
2022-12-11T11:25:31.041Z,29.38
2022-12-11T11:28:06.485Z,32.17
2022-12-11T11:30:39.303Z,33.10
2022-12-11T11:33:13.706Z,29.08
2022-12-11T11:35:45.702Z,29.45
2022-12-11T11:38:18.519Z,37.97
2022-12-11T11:40:58.124Z,33.22
2022-12-11T11:43:38.721Z,31.73
2022-12-11T11:46:14.192Z,32.92
2022-12-11T11:49:07.840Z,33.58
2022-12-11T11:51:38.845Z,26.63
2022-12-11T11:54:29.395Z,28.35
2022-12-11T11:56:57.231Z,28.33
2022-12-11T11:59:27.141Z,31.17
2022-12-11T12:01:56.766Z,27.70
2022-12-11T12:04:24.506Z,30.58
2022-12-11T12:06:54.344Z,26.73
2022-12-11T12:09:32.084Z,24.65
2022-12-11T12:12:11.447Z,20.95
2022-12-11T12:14:53.557Z,28.15
2022-12-11T12:17:36.240Z,24.73
2022-12-11T12:20:10.598Z,27.02
2022-12-11T12:22:49.228Z,28.92
2022-12-11T12:25:46.470Z,30.38
2022-12-11T12:28:36.307Z,29.83
2022-12-11T12:31:31.189Z,30.13
2022-12-11T12:34:24.842Z,31.73
2022-12-11T12:37:17.645Z,22.55
2022-12-11T12:40:00.956Z,29.48
2022-12-11T12:42:52.576Z,16.92
2022-12-11T12:45:31.115Z,25.00
2022-12-11T12:47:57.654Z,29.75
2022-12-11T12:50:37.309Z,17.83
2022-12-11T12:53:06.179Z,24.48
2022-12-11T12:55:34.911Z,26.30
2022-12-11T12:58:04.390Z,28.38
2022-12-11T13:00:32.849Z,24.83
2022-12-11T13:03:02.875Z,29.05
2022-12-11T13:05:33.401Z,23.75
2022-12-11T13:08:03.310Z,26.52
2022-12-11T13:10:43.210Z,26.70
2022-12-11T13:13:33.013Z,26.65
2022-12-11T13:16:25.412Z,24.08
2022-12-11T13:18:53.014Z,22.83
2022-12-11T13:21:33.735Z,22.95
2022-12-11T13:24:21.627Z,29.10
2022-12-11T13:26:50.191Z,24.75
2022-12-11T13:29:37.725Z,24.90
2022-12-11T13:32:10.058Z,27.55
2022-12-11T13:34:39.081Z,22.77
2022-12-11T13:37:07.425Z,27.77
2022-12-11T13:39:39.938Z,29.83
2022-12-11T13:42:20.264Z,26.67
2022-12-11T13:44:49.357Z,25.30
2022-12-11T13:47:19.861Z,27.77
2022-12-11T13:49:50.732Z,24.42
2022-12-11T13:52:19.699Z,23.98
2022-12-11T13:54:55.734Z,24.95
2022-12-11T13:57:28.505Z,40.95
2022-12-11T13:59:59.662Z,23.15
2022-12-11T14:02:35.736Z,22.10
2022-12-11T14:05:08.444Z,23.27
2022-12-11T14:07:39.289Z,26.08
2022-12-11T14:10:09.947Z,24.48
2022-12-11T14:12:37.222Z,26.50
2022-12-11T14:15:04.892Z,24.00
2022-12-11T14:17:33.973Z,23.38
2022-12-11T14:20:07.310Z,23.23
2022-12-11T14:22:34.366Z,21.38
2022-12-11T14:25:03.739Z,22.17
2022-12-11T14:27:31.034Z,23.48
2022-12-11T14:29:57.595Z,24.48
2022-12-11T14:32:35.154Z,23.92
2022-12-11T14:35:06.058Z,21.05
2022-12-11T14:37:34.114Z,22.25
2022-12-11T14:40:08.920Z,22.38
2022-12-11T14:43:01.318Z,27.52
2022-12-11T14:45:40.630Z,25.52
2022-12-11T14:48:35.783Z,26.13
2022-12-11T14:51:05.240Z,22.58
2022-12-11T14:53:38.496Z,21.02
2022-12-11T14:56:15.443Z,23.48
2022-12-11T14:58:53.119Z,23.70
2022-12-11T15:01:27.685Z,29.58
2022-12-11T15:04:19.796Z,25.50
2022-12-11T15:06:49.451Z,21.77
2022-12-11T15:09:41.541Z,18.00
2022-12-11T15:12:12.940Z,22.75
2022-12-11T15:15:05.926Z,21.30
2022-12-11T15:17:34.656Z,16.70
2022-12-11T15:20:10.822Z,23.40
2022-12-11T15:22:38.041Z,19.58
2022-12-11T15:25:05.955Z,24.23
2022-12-11T15:27:40.098Z,23.58
2022-12-11T15:30:15.770Z,16.83
2022-12-11T15:32:42.555Z,19.02
2022-12-11T15:35:26.990Z,20.73
2022-12-11T15:37:58.477Z,21.23
2022-12-11T15:40:25.590Z,21.90
2022-12-11T15:42:52.402Z,19.17
2022-12-11T15:45:28.495Z,46.90
2022-12-11T15:47:55.748Z,20.83
2022-12-11T15:50:25.829Z,18.25
2022-12-11T15:52:54.654Z,19.85
2022-12-11T15:55:22.550Z,18.60
2022-12-11T15:57:58.418Z,21.83
2022-12-11T16:00:27.659Z,22.70
2022-12-11T16:02:55.289Z,24.40
2022-12-11T16:05:21.915Z,20.65
2022-12-11T16:07:52.286Z,22.40
2022-12-11T16:10:20.264Z,26.40
2022-12-11T16:12:49.558Z,23.23
2022-12-11T16:15:23.113Z,22.65
2022-12-11T16:18:03.520Z,19.85
2022-12-11T16:20:31.321Z,24.50
2022-12-11T16:22:58.835Z,17.50
2022-12-11T16:25:25.896Z,21.85
2022-12-11T16:27:56.421Z,23.88
2022-12-11T16:30:23.862Z,20.83
2022-12-11T16:32:51.110Z,21.33
2022-12-11T16:35:18.782Z,24.55
2022-12-11T16:37:45.986Z,21.60
2022-12-11T16:40:12.592Z,22.38
2022-12-11T16:42:39.130Z,20.30
2022-12-11T16:45:09.171Z,21.02
2022-12-11T16:47:36.069Z,22.67
2022-12-11T16:50:02.681Z,18.30
2022-12-11T16:52:29.682Z,22.45
2022-12-11T16:54:57.089Z,23.23
2022-12-11T16:57:24.218Z,21.63
2022-12-11T16:59:50.794Z,20.55
2022-12-11T17:02:18.380Z,20.73
2022-12-11T17:04:50.691Z,27.73
2022-12-11T17:07:20.368Z,27.75
2022-12-11T17:09:46.965Z,26.83
2022-12-11T17:12:13.757Z,20.05
2022-12-11T17:14:40.278Z,22.05
2022-12-11T17:17:07.001Z,24.85
2022-12-11T17:19:33.648Z,21.00
2022-12-11T17:22:00.382Z,23.67
2022-12-11T17:24:27.093Z,26.98
2022-12-11T17:26:55.387Z,77.40
2022-12-11T17:29:22.133Z,30.08
2022-12-11T17:31:48.624Z,20.83
2022-12-11T17:34:16.004Z,21.00
2022-12-11T17:36:42.642Z,23.48
2022-12-11T17:39:09.306Z,22.52
2022-12-11T17:41:35.832Z,21.10
2022-12-11T17:44:02.328Z,21.90
2022-12-11T17:46:29.019Z,20.98
2022-12-11T17:48:56.466Z,24.60
2022-12-11T17:51:24.645Z,23.52
2022-12-11T17:53:52.479Z,23.02
2022-12-11T17:56:19.120Z,22.75
2022-12-11T17:58:46.004Z,24.75
2022-12-11T18:01:13.280Z,25.77
2022-12-11T18:03:40.871Z,20.63
2022-12-11T18:06:11.763Z,24.20
2022-12-11T18:08:39.375Z,25.48
2022-12-11T18:11:15.830Z,23.60
2022-12-11T18:13:43.767Z,21.67
2022-12-11T18:16:35.781Z,26.65
2022-12-11T18:19:02.351Z,25.08
2022-12-11T18:21:32.000Z,21.88
2022-12-11T18:23:59.598Z,25.98
2022-12-11T18:26:26.734Z,23.25
2022-12-11T18:28:53.682Z,25.25
2022-12-11T18:31:22.280Z,26.70
2022-12-11T18:33:49.298Z,29.60
2022-12-11T18:36:18.034Z,24.60
2022-12-11T18:38:45.072Z,24.10
2022-12-11T18:41:13.217Z,27.75
2022-12-11T18:43:41.457Z,25.27
2022-12-11T18:46:10.269Z,27.45
2022-12-11T18:48:37.348Z,29.55
2022-12-11T18:51:09.197Z,25.73
2022-12-11T18:53:37.030Z,24.70
2022-12-11T18:56:09.058Z,28.83
2022-12-11T18:58:35.906Z,29.02
2022-12-11T19:01:08.222Z,25.10
2022-12-11T19:03:35.563Z,30.15
2022-12-11T19:06:17.662Z,32.60
2022-12-11T19:08:45.009Z,27.20
2022-12-11T19:11:19.947Z,33.20
2022-12-11T19:13:47.474Z,31.85
2022-12-11T19:16:18.507Z,32.95
2022-12-11T19:18:45.606Z,29.10
2022-12-11T19:21:14.007Z,31.25
2022-12-11T19:23:41.725Z,30.38
2022-12-11T19:26:13.067Z,34.30
2022-12-11T19:28:40.300Z,27.63
2022-12-11T19:31:12.379Z,28.92
2022-12-11T19:33:42.766Z,27.10
2022-12-11T19:36:13.237Z,27.58
2022-12-11T19:38:41.873Z,28.92
2022-12-11T19:41:13.171Z,27.85
2022-12-11T19:43:39.715Z,28.27
2022-12-11T19:46:08.098Z,28.05
2022-12-11T19:48:37.626Z,24.90
2022-12-11T19:51:08.903Z,25.58
2022-12-11T19:56:02.695Z,27.60
2022-12-11T19:58:29.516Z,29.85
2022-12-11T20:00:56.473Z,23.67
2022-12-11T20:03:23.395Z,31.60
2022-12-11T20:05:49.974Z,28.45
2022-12-11T20:11:15.881Z,31.00
2022-12-11T20:13:45.982Z,30.27
2022-12-11T20:16:15.769Z,33.50
2022-12-11T20:18:42.542Z,29.85
2022-12-11T20:21:13.327Z,30.80
2022-12-11T20:23:40.261Z,31.55
2022-12-11T20:26:13.480Z,25.58
2022-12-11T20:28:40.797Z,57.13
2022-12-11T20:31:19.510Z,23.15
2022-12-11T20:33:47.171Z,18.33
2022-12-11T20:36:16.613Z,27.83
2022-12-11T20:38:43.547Z,22.58
2022-12-11T20:41:12.847Z,24.95
2022-12-11T20:43:39.687Z,19.10
2022-12-11T20:46:07.832Z,21.73
2022-12-11T20:48:39.129Z,24.80
2022-12-11T20:51:07.896Z,20.00
2022-12-11T20:53:35.327Z,22.38
2022-12-11T20:56:02.634Z,23.75
2022-12-11T20:58:29.155Z,22.58
2022-12-11T21:00:55.671Z,25.42
2022-12-11T21:03:22.176Z,25.92
2022-12-11T21:05:48.770Z,26.60
2022-12-11T21:08:15.363Z,25.45
2022-12-11T21:10:43.908Z,27.77
2022-12-11T21:13:10.982Z,25.35
2022-12-11T21:15:38.700Z,28.88
2022-12-11T21:18:06.435Z,27.40
2022-12-11T21:20:33.223Z,28.52
2022-12-11T21:22:59.994Z,27.08
2022-12-11T21:25:27.418Z,31.42
2022-12-11T21:27:54.024Z,34.25
2022-12-11T21:30:20.576Z,32.42
2022-12-11T21:32:47.603Z,30.33
2022-12-11T21:35:14.427Z,30.23
2022-12-11T21:37:41.909Z,35.35
2022-12-11T21:40:09.462Z,29.80
2022-12-11T21:42:36.091Z,31.02
2022-12-11T21:47:50.248Z,29.85
2022-12-11T21:50:17.242Z,26.80
2022-12-11T21:52:44.166Z,30.27
2022-12-11T21:55:12.819Z,32.60
2022-12-11T21:57:39.818Z,38.40
2022-12-11T22:00:06.878Z,32.70
2022-12-11T22:02:39.074Z,36.72
2022-12-11T22:05:07.702Z,32.92
2022-12-11T22:07:34.202Z,32.50
2022-12-11T22:10:00.736Z,31.08
2022-12-11T22:12:28.660Z,29.65
2022-12-11T22:14:55.174Z,33.42
2022-12-11T22:17:21.998Z,32.28
2022-12-11T22:19:48.722Z,34.30
2022-12-11T22:22:15.214Z,32.83
2022-12-11T22:24:42.613Z,30.73
2022-12-11T22:27:09.270Z,35.15
2022-12-11T22:29:35.790Z,33.45
2022-12-11T22:32:02.634Z,32.63
2022-12-11T22:34:29.258Z,31.88
2022-12-11T22:36:56.667Z,33.30
2022-12-11T22:39:24.536Z,27.58
2022-12-11T22:41:51.100Z,29.33
2022-12-11T22:44:20.164Z,31.55
2022-12-11T22:46:50.169Z,29.92
2022-12-11T22:49:18.275Z,32.40
2022-12-11T22:51:45.312Z,31.95
2022-12-11T22:54:11.975Z,31.77
2022-12-11T22:56:38.761Z,31.13
2022-12-11T22:59:05.312Z,29.48
2022-12-11T23:01:34.782Z,31.98
2022-12-11T23:04:01.518Z,33.25
2022-12-11T23:06:28.659Z,36.28
2022-12-11T23:08:59.224Z,34.30
2022-12-11T23:11:34.917Z,34.28
2022-12-11T23:14:01.566Z,29.73
2022-12-11T23:16:28.444Z,34.45
2022-12-11T23:18:56.099Z,34.90
2022-12-11T23:21:23.242Z,34.00
2022-12-11T23:23:50.419Z,32.92
2022-12-11T23:26:19.238Z,35.72
2022-12-11T23:28:46.820Z,33.70
2022-12-11T23:31:13.955Z,33.85
2022-12-11T23:33:40.649Z,36.47
2022-12-11T23:36:08.033Z,35.25
2022-12-11T23:38:34.609Z,38.72
2022-12-11T23:41:02.267Z,33.53
2022-12-11T23:43:28.862Z,31.52
2022-12-11T23:45:55.430Z,33.35
2022-12-11T23:48:22.003Z,36.25
2022-12-11T23:50:48.758Z,32.70
2022-12-11T23:53:15.481Z,28.38
2022-12-11T23:55:44.349Z,30.65
2022-12-11T23:58:11.093Z,36.55
